Time;durP1;ratioP1;P1;durP2;ratioP2;P2;SDS_P1;SDS_P2;PMS_P1;PMS_P2;Temp;Humidity;BMP_temperature;BMP_pressure;BME280_temperature;BME280_humidity;BME280_pressure;Samples;Min_cycle;Max_cycle;Signal;HPM_P1;HPM_P2
2023/01/21 00:00:55;;;;;;;;;2.00;2.00;;;;;20.51;42.18;102128.09;5058215;28;45523;-73
2023/01/21 00:03:20;;;;;;;;;3.00;2.00;;;;;20.50;41.95;102131.75;5057839;28;46032;-73
2023/01/21 00:05:45;;;;;;;;;2.00;2.00;;;;;20.49;42.21;102128.25;5057694;28;45359;-73
2023/01/21 00:08:11;;;;;;;;;1.33;0.00;;;;;20.49;41.94;102132.69;5058268;28;45327;-73
2023/01/21 00:10:36;;;;;;;;;3.00;2.25;;;;;20.49;42.02;102132.69;5057942;28;45587;-73
2023/01/21 00:13:02;;;;;;;;;1.00;0.67;;;;;20.49;41.73;102130.91;5057859;28;45881;-73
2023/01/21 00:15:27;;;;;;;;;1.00;1.00;;;;;20.45;41.96;102123.38;5057889;28;45335;-73
2023/01/21 00:17:53;;;;;;;;;1.00;1.00;;;;;20.47;41.91;102148.72;5058149;28;45420;-73
2023/01/21 00:20:18;;;;;;;;;0.67;0.67;;;;;20.43;41.67;102147.28;5057582;28;45404;-73
2023/01/21 00:22:44;;;;;;;;;1.00;1.00;;;;;20.46;41.80;102151.47;5057515;28;47491;-73
2023/01/21 00:25:09;;;;;;;;;2.00;2.00;;;;;20.43;41.75;102143.84;5056423;28;45416;-73
2023/01/21 00:27:34;;;;;;;;;2.00;1.00;;;;;20.42;41.77;102155.38;5039904;28;45410;-73
2023/01/21 00:30:00;;;;;;;;;3.33;2.00;;;;;20.43;41.72;102160.50;5057682;28;45431;-73
2023/01/21 00:32:25;;;;;;;;;2.33;2.33;;;;;20.42;41.80;102165.94;5057455;28;45304;-73
2023/01/21 00:34:50;;;;;;;;;1.25;1.25;;;;;20.42;41.88;102168.59;5057219;28;45299;-73
2023/01/21 00:37:16;;;;;;;;;1.00;1.00;;;;;20.43;41.78;102178.22;5057612;28;45403;-73
2023/01/21 00:39:41;;;;;;;;;0.67;0.67;;;;;20.40;41.61;102168.75;5057752;28;45265;-73
2023/01/21 00:42:10;;;;;;;;;2.67;2.00;;;;;20.29;41.74;102159.97;5057368;28;45978;-73
2023/01/21 00:44:36;;;;;;;;;1.33;1.33;;;;;20.39;41.77;102178.47;5057335;28;45393;-73
2023/01/21 00:47:02;;;;;;;;;2.25;1.50;;;;;20.39;41.42;102183.75;5057084;28;45499;-74
2023/01/21 00:49:27;;;;;;;;;2.75;1.50;;;;;20.39;41.66;102178.47;5056247;28;45275;-73
2023/01/21 00:51:53;;;;;;;;;0.67;0.67;;;;;20.36;41.71;102184.03;5057313;28;46376;-73
2023/01/21 00:54:18;;;;;;;;;1.00;1.00;;;;;20.38;41.36;102183.88;5057236;28;45352;-73
2023/01/21 00:56:43;;;;;;;;;2.00;2.00;;;;;20.34;41.36;102179.84;5057193;28;45443;-73
2023/01/21 00:59:09;;;;;;;;;1.00;1.00;;;;;20.37;41.41;102195.44;5057253;28;45288;-73
2023/01/21 01:01:37;;;;;;;;;1.75;1.75;;;;;20.33;41.69;102192.22;5056920;28;46066;-71
2023/01/21 01:04:04;;;;;;;;;2.00;1.00;;;;;20.37;41.49;102206.84;5057080;28;45439;-73
2023/01/21 01:06:30;;;;;;;;;2.67;1.67;;;;;20.26;41.58;102197.22;5056956;28;45383;-73
2023/01/21 01:08:57;;;;;;;;;0.67;0.67;;;;;20.35;41.58;102205.31;5057021;28;45471;-73
2023/01/21 01:11:25;;;;;;;;;0.00;0.00;;;;;20.34;41.52;102215.06;5056945;28;47139;-73
2023/01/21 01:13:51;;;;;;;;;1.33;1.33;;;;;20.33;41.31;102216.00;5056837;28;45285;-73
2023/01/21 01:16:17;;;;;;;;;4.00;1.00;;;;;20.34;41.22;102214.22;5056569;28;45436;-73
2023/01/21 01:18:43;;;;;;;;;1.00;0.00;;;;;20.32;41.38;102227.56;5056864;28;45369;-73
2023/01/21 01:21:15;;;;;;;;;1.33;1.00;;;;;20.33;41.23;102231.03;5056877;28;45653;-73
2023/01/21 01:23:40;;;;;;;;;1.67;1.33;;;;;20.32;41.31;102234.66;5056812;28;45337;-73
2023/01/21 01:26:09;;;;;;;;;1.00;1.00;;;;;20.31;41.48;102238.25;5056627;28;45463;-73
2023/01/21 01:28:35;;;;;;;;;0.67;0.67;;;;;20.25;41.09;102226.41;5056946;28;45491;-73
2023/01/21 01:31:02;;;;;;;;;1.25;1.25;;;;;20.32;41.20;102237.31;5021488;28;46005;-73
2023/01/21 01:33:28;;;;;;;;;1.50;1.50;;;;;20.31;41.28;102235.63;5056522;28;45354;-73
2023/01/21 01:35:53;;;;;;;;;2.67;1.67;;;;;20.28;41.06;102247.28;5056641;28;45329;-73
2023/01/21 01:38:21;;;;;;;;;1.00;0.75;;;;;20.28;41.07;102242.00;5056732;28;45395;-73
2023/01/21 01:40:49;;;;;;;;;1.00;1.00;;;;;20.32;40.92;102247.88;5056458;28;46438;-73
2023/01/21 01:43:53;;;;;;;;;1.67;0.67;;;;;20.32;41.02;102259.28;5056360;28;45333;-73
2023/01/21 01:46:19;;;;;;;;;1.00;1.00;;;;;20.31;40.92;102260.25;5053460;28;45285;-73
2023/01/21 01:48:49;;;;;;;;;2.00;2.00;;;;;20.22;40.86;102251.31;5056234;28;45322;-73
2023/01/21 01:51:21;;;;;;;;;1.33;0.67;;;;;20.29;41.13;102265.69;5056383;28;45490;-73
2023/01/21 01:53:47;;;;;;;;;2.33;2.33;;;;;20.31;41.09;102273.47;5056147;28;45367;-73
2023/01/21 01:56:14;;;;;;;;;1.00;1.00;;;;;20.32;40.79;102283.09;5056229;28;45351;-73
2023/01/21 01:58:40;;;;;;;;;1.33;1.33;;;;;20.26;40.87;102267.75;5056326;28;45277;-73
2023/01/21 02:01:05;;;;;;;;;1.67;1.33;;;;;20.29;40.81;102283.34;5054779;28;46294;-73
2023/01/21 02:03:45;;;;;;;;;2.67;1.67;;;;;20.33;40.75;102292.66;5055280;28;45364;-73
2023/01/21 02:06:16;;;;;;;;;1.00;1.00;;;;;20.25;40.91;102280.13;5056460;28;45400;-73
2023/01/21 02:08:44;;;;;;;;;1.00;1.00;;;;;20.33;40.98;102297.09;5056244;28;45380;-73
2023/01/21 02:11:11;;;;;;;;;2.25;1.00;;;;;20.32;40.67;102308.66;5055961;28;47139;-73
2023/01/21 02:13:36;;;;;;;;;2.00;2.00;;;;;20.31;40.76;102312.28;5055897;28;45548;-73
2023/01/21 02:16:26;;;;;;;;;2.00;2.00;;;;;20.32;40.64;102314.81;5037800;28;45706;-73
2023/01/21 02:19:00;;;;;;;;;1.67;1.33;;;;;20.33;40.57;102323.53;5056192;28;45380;-73
2023/01/21 02:21:53;;;;;;;;;3.67;1.67;;;;;20.32;40.71;102321.88;5056000;28;46177;-73
2023/01/21 02:24:56;;;;;;;;;0.33;0.33;;;;;20.31;40.68;102328.97;5055852;28;45480;-73
2023/01/21 02:27:35;;;;;;;;;3.67;1.67;;;;;20.30;40.72;102329.94;5037853;28;45357;-73
2023/01/21 02:30:29;;;;;;;;;2.67;1.67;;;;;20.29;40.64;102339.69;5055530;28;45288;-72
2023/01/21 02:33:15;;;;;;;;;1.75;1.75;;;;;20.31;40.53;102346.63;5055577;28;47283;-73
2023/01/21 02:35:55;;;;;;;;;1.67;1.67;;;;;20.29;40.46;102341.50;5055772;28;45332;-73
2023/01/21 02:39:19;;;;;;;;;1.00;1.00;;;;;20.28;40.70;102345.09;5055904;28;45348;-73
2023/01/21 02:42:05;;;;;;;;;0.67;0.67;;;;;20.28;40.69;102353.88;4935097;28;45435;-72
2023/01/21 02:44:53;;;;;;;;;0.33;0.33;;;;;20.28;40.77;102353.03;4934769;28;46164;-72
2023/01/21 02:47:30;;;;;;;;;1.00;1.00;;;;;20.27;40.43;102354.00;4933881;28;45530;-72
2023/01/21 02:50:05;;;;;;;;;1.75;1.75;;;;;20.28;40.28;102358.31;4935208;28;45424;-72
2023/01/21 02:52:31;;;;;;;;;1.00;1.00;;;;;20.20;40.51;102352.84;4935099;28;45434;-74
2023/01/21 02:54:59;;;;;;;;;0.67;0.67;;;;;20.26;40.52;102369.03;4933996;28;45311;-74
2023/01/21 02:58:15;;;;;;;;;1.75;0.75;;;;;20.25;40.43;102369.97;4934935;28;45493;-73
2023/01/21 03:00:56;;;;;;;;;2.75;1.25;;;;;20.25;40.33;102377.06;4896576;29;45353;-73
2023/01/21 03:03:34;;;;;;;;;1.00;0.75;;;;;20.25;40.47;102379.72;4897061;29;45451;-73
2023/01/21 03:06:26;;;;;;;;;2.75;1.75;;;;;20.24;40.36;102378.06;4896528;29;46011;-73
2023/01/21 03:08:54;;;;;;;;;1.00;1.00;;;;;20.23;40.49;102384.28;4896645;29;45406;-73
2023/01/21 03:11:22;;;;;;;;;1.00;1.00;;;;;20.22;40.64;102387.91;4896792;28;45456;-73
2023/01/21 03:17:21;;;;;;;;;2.00;2.00;;;;;20.22;40.47;102401.13;4920707;28;45343;-72
2023/01/21 03:19:59;;;;;;;;;1.67;0.67;;;;;20.12;40.14;102388.69;4996653;28;45426;-73
2023/01/21 03:22:29;;;;;;;;;1.00;1.00;;;;;20.20;40.35;102410.97;4996722;28;45516;-73
2023/01/21 03:24:57;;;;;;;;;1.50;1.50;;;;;20.20;40.44;102410.97;4996568;28;45549;-74
2023/01/21 03:27:26;;;;;;;;;1.67;1.33;;;;;20.19;40.41;102410.16;4996103;28;46131;-73
2023/01/21 03:30:15;;;;;;;;;3.00;3.00;;;;;20.19;40.29;102418.09;4996554;28;45424;-72
2023/01/21 03:32:43;;;;;;;;;0.75;0.75;;;;;20.14;40.50;102415.00;5057924;28;45328;-74
2023/01/21 03:35:13;;;;;;;;;2.75;1.75;;;;;20.17;40.46;102422.63;5057822;28;45587;-74
2023/01/21 03:37:54;;;;;;;;;1.33;1.33;;;;;20.17;40.13;102418.19;5058401;28;46200;-73
2023/01/21 03:40:22;;;;;;;;;3.25;2.00;;;;;20.15;40.14;102425.41;5058485;28;45401;-73
2023/01/21 03:42:49;;;;;;;;;3.00;2.00;;;;;20.11;40.21;102424.00;5058073;28;45315;-73
2023/01/21 03:45:18;;;;;;;;;1.25;1.25;;;;;20.16;40.29;102429.75;5058079;28;45478;-73
2023/01/21 03:47:53;;;;;;;;;2.00;2.00;;;;;20.16;40.08;102431.56;5058179;28;46152;-73
2023/01/21 03:50:26;;;;;;;;;3.25;1.50;;;;;20.16;40.23;102437.69;5058172;28;45529;-73
2023/01/21 03:52:52;;;;;;;;;3.50;1.75;;;;;20.15;40.10;102436.00;5058164;28;45355;-73
2023/01/21 03:55:18;;;;;;;;;1.67;1.67;;;;;20.14;40.45;102436.13;5057935;28;45344;-73
2023/01/21 03:57:43;;;;;;;;;1.00;1.00;;;;;20.16;40.05;102436.84;5057176;28;45531;-73
2023/01/21 04:00:10;;;;;;;;;3.50;2.00;;;;;20.16;40.26;102447.41;5058178;28;45349;-73
2023/01/21 04:02:35;;;;;;;;;2.33;2.33;;;;;20.15;40.20;102451.00;5057573;28;45387;-73
2023/01/21 04:05:01;;;;;;;;;1.00;1.00;;;;;20.14;40.17;102450.16;5058125;28;45297;-72
2023/01/21 04:07:26;;;;;;;;;0.75;0.75;;;;;20.07;40.40;102455.09;5058147;28;45352;-73
2023/01/21 04:09:51;;;;;;;;;3.00;2.00;;;;;20.14;40.21;102466.03;5057991;28;45279;-73
2023/01/21 04:12:17;;;;;;;;;1.25;1.25;;;;;20.08;39.90;102461.22;5057727;28;45211;-73
2023/01/21 04:14:42;;;;;;;;;3.50;2.00;;;;;20.15;40.08;102480.06;5057963;28;45277;-73
2023/01/21 04:17:08;;;;;;;;;1.50;1.50;;;;;20.14;40.08;102479.22;5057946;28;46039;-73
2023/01/21 04:19:33;;;;;;;;;4.00;3.00;;;;;20.14;39.88;102491.63;5057104;28;45298;-73
2023/01/21 04:21:59;;;;;;;;;1.50;1.50;;;;;20.14;40.11;102491.63;5057925;28;45290;-73
2023/01/21 04:24:24;;;;;;;;;4.50;2.50;;;;;20.14;40.27;102495.09;5056995;28;45316;-73
2023/01/21 04:26:50;;;;;;;;;3.25;3.00;;;;;20.09;39.83;102493.78;5057239;28;46876;-74
2023/01/21 04:29:16;;;;;;;;;4.25;2.00;;;;;20.13;40.11;102497.88;5057617;28;45342;-74
2023/01/21 04:31:41;;;;;;;;;2.75;2.75;;;;;20.13;39.92;102497.88;5057859;28;45321;-73
2023/01/21 04:34:07;;;;;;;;;3.00;2.00;;;;;20.14;39.98;102504.84;5057704;28;45364;-72
2023/01/21 04:36:32;;;;;;;;;1.67;1.67;;;;;20.14;39.97;102505.66;5057473;28;46088;-73
2023/01/21 04:38:57;;;;;;;;;4.00;2.50;;;;;20.14;39.91;102510.94;5057677;28;45381;-74
2023/01/21 04:41:23;;;;;;;;;3.00;1.75;;;;;20.15;40.03;102507.34;5057373;28;45770;-73
2023/01/21 04:43:48;;;;;;;;;2.00;1.67;;;;;20.15;39.94;102509.16;5057624;28;45443;-74
2023/01/21 04:46:13;;;;;;;;;2.75;2.00;;;;;20.14;39.97;102504.84;5057182;28;46192;-74
2023/01/21 04:48:39;;;;;;;;;2.00;1.75;;;;;20.17;39.65;102515.13;5057357;28;45431;-74
2023/01/21 04:51:05;;;;;;;;;4.00;2.50;;;;;20.16;39.75;102524.91;5056663;28;45350;-73
2023/01/21 04:53:30;;;;;;;;;2.50;1.75;;;;;20.15;39.87;102517.06;5057252;28;45361;-72
2023/01/21 04:55:55;;;;;;;;;2.25;2.25;;;;;20.16;39.64;102524.91;5056650;28;45681;-73
2023/01/21 04:58:21;;;;;;;;;2.25;2.25;;;;;20.16;39.85;102530.19;5038788;28;45396;-73
2023/01/21 05:00:46;;;;;;;;;5.75;2.25;;;;;20.17;39.87;102531.00;5057328;28;45407;-72
2023/01/21 05:03:11;;;;;;;;;2.50;2.50;;;;;20.17;39.83;102531.00;5057348;28;45289;-73
2023/01/21 05:05:37;;;;;;;;;2.00;2.00;;;;;20.16;39.55;102531.97;5056963;28;48037;-73
2023/01/21 05:08:02;;;;;;;;;2.00;2.00;;;;;20.07;39.51;102523.81;5056185;28;45441;-72
2023/01/21 05:10:28;;;;;;;;;4.00;2.75;;;;;20.18;39.55;102540.63;5056708;28;45767;-74
2023/01/21 05:12:53;;;;;;;;;2.75;2.75;;;;;20.14;39.88;102534.72;5057239;28;45459;-73
2023/01/21 05:15:19;;;;;;;;;2.75;2.75;;;;;20.09;39.86;102523.66;5056748;28;47088;-74
2023/01/21 05:17:44;;;;;;;;;1.75;1.75;;;;;20.13;39.80;102537.50;5057230;28;45435;-73
2023/01/21 05:20:10;;;;;;;;;2.50;2.25;;;;;20.05;39.65;102538.94;5056932;28;45436;-74
2023/01/21 05:22:36;;;;;;;;;2.75;2.75;;;;;20.14;39.65;102550.59;5056557;28;45392;-72
2023/01/21 05:25:01;;;;;;;;;2.25;2.25;;;;;20.13;39.46;102559.50;5038512;28;46137;-73
2023/01/21 05:27:27;;;;;;;;;3.00;3.00;;;;;20.04;39.82;102557.56;5056847;28;45376;-73
2023/01/21 05:29:52;;;;;;;;;2.75;2.75;;;;;20.11;39.71;102566.69;5056970;28;45422;-72
2023/01/21 05:32:18;;;;;;;;;2.00;2.00;;;;;20.12;39.70;102575.47;5056573;28;45345;-73
2023/01/21 05:34:43;;;;;;;;;2.00;2.00;;;;;20.11;39.69;102576.41;5056542;28;46322;-73
2023/01/21 05:37:09;;;;;;;;;2.00;2.00;;;;;20.11;39.76;102571.13;5056128;28;45361;-74
2023/01/21 05:39:35;;;;;;;;;1.00;1.00;;;;;20.10;39.62;102572.91;5056893;28;45357;-73
2023/01/21 05:42:00;;;;;;;;;3.00;3.00;;;;;20.10;39.65;102574.72;5056790;28;45352;-73
2023/01/21 05:44:25;;;;;;;;;2.00;2.00;;;;;20.10;39.65;102580.84;5056399;28;45297;-73
2023/01/21 05:46:50;;;;;;;;;2.75;2.00;;;;;20.09;39.78;102589.72;5056114;28;45359;-73
2023/01/21 05:49:16;;;;;;;;;3.25;2.50;;;;;20.01;39.63;102569.22;5056507;28;45228;-73
2023/01/21 05:51:41;;;;;;;;;4.50;3.75;;;;;20.10;39.42;102593.22;5056338;28;45326;-73
2023/01/21 05:54:07;;;;;;;;;3.25;2.25;;;;;20.09;39.52;102599.47;5056029;28;46125;-73
2023/01/21 05:56:32;;;;;;;;;4.00;2.00;;;;;20.05;39.39;102588.31;5056355;28;45384;-74
2023/01/21 05:58:57;;;;;;;;;3.00;3.00;;;;;20.06;39.75;102606.66;5056465;28;45646;-74
2023/01/21 06:01:23;;;;;;;;;2.50;1.75;;;;;20.07;39.51;102607.50;5056346;28;45369;-73
2023/01/21 06:03:48;;;;;;;;;3.75;2.50;;;;;20.07;39.49;102613.66;5056164;28;46242;-73
2023/01/21 06:06:14;;;;;;;;;3.00;3.00;;;;;20.04;39.42;102605.97;5055857;28;45605;-73
2023/01/21 06:08:39;;;;;;;;;1.25;1.25;;;;;20.07;39.53;102613.66;5056174;28;45317;-73
2023/01/21 06:11:04;;;;;;;;;2.00;2.00;;;;;20.06;39.52;102611.94;5056298;28;45381;-73
2023/01/21 06:13:30;;;;;;;;;3.00;3.00;;;;;20.06;39.60;102619.06;5055991;28;45376;-72
2023/01/21 06:15:55;;;;;;;;;5.25;3.75;;;;;19.98;39.38;102609.13;5055807;28;45438;-74
2023/01/21 06:18:22;;;;;;;;;4.00;3.75;;;;;20.05;39.40;102625.31;5056154;28;45531;-72
2023/01/21 06:20:47;;;;;;;;;6.25;4.75;;;;;20.05;39.42;102627.94;5055611;28;45392;-72
2023/01/21 06:23:12;;;;;;;;;2.25;2.25;;;;;20.04;39.38;102631.53;5055832;28;45394;-72
2023/01/21 06:25:39;;;;;;;;;4.50;1.75;;;;;20.04;39.31;102629.75;5055855;28;45397;-72
2023/01/21 06:28:05;;;;;;;;;4.25;3.50;;;;;20.04;39.42;102634.19;5055960;28;45327;-72
2023/01/21 06:30:31;;;;;;;;;3.50;2.50;;;;;20.05;39.62;102633.22;5055787;28;45344;-73
2023/01/21 06:32:56;;;;;;;;;2.00;2.00;;;;;20.03;39.60;102632.50;5055622;28;46107;-73
2023/01/21 06:35:22;;;;;;;;;3.75;3.00;;;;;19.95;39.24;102626.06;5037228;28;45403;-73
2023/01/21 06:37:47;;;;;;;;;3.75;2.00;;;;;19.91;39.09;102621.09;5055956;28;45462;-72
2023/01/21 06:40:13;;;;;;;;;3.25;3.25;;;;;20.03;39.46;102643.94;5055930;28;45471;-73
2023/01/21 06:42:39;;;;;;;;;2.50;2.50;;;;;19.99;39.71;102639.00;5055582;28;45475;-74
2023/01/21 06:45:05;;;;;;;;;1.75;1.75;;;;;20.03;39.65;102645.72;5055240;28;49684;-71
2023/01/21 06:47:30;;;;;;;;;3.25;3.25;;;;;19.99;39.67;102639.00;5056559;28;45437;-73
2023/01/21 06:49:56;;;;;;;;;3.25;1.75;;;;;20.03;39.48;102656.28;5058824;28;45534;-72
2023/01/21 06:52:22;;;;;;;;;2.75;2.75;;;;;20.02;39.44;102650.16;5058938;28;46109;-72
2023/01/21 06:54:48;;;;;;;;;4.00;3.00;;;;;20.02;39.34;102652.81;5058912;28;45359;-73
2023/01/21 06:57:13;;;;;;;;;4.50;3.75;;;;;20.02;39.15;102658.09;5059256;28;45360;-72
2023/01/21 06:59:39;;;;;;;;;4.75;4.00;;;;;20.01;39.42;102658.22;5059177;28;45447;-73
2023/01/21 07:02:04;;;;;;;;;6.00;2.75;;;;;20.02;39.23;102657.25;5058992;28;45896;-71
2023/01/21 07:04:30;;;;;;;;;4.25;2.75;;;;;20.01;39.18;102659.03;5058639;28;45382;-74
2023/01/21 07:06:55;;;;;;;;;3.50;3.00;;;;;20.01;39.32;102676.72;5059036;28;45221;-73
2023/01/21 07:09:20;;;;;;;;;2.50;2.00;;;;;19.91;39.29;102668.66;5059228;28;45311;-73
2023/01/21 07:11:46;;;;;;;;;3.00;3.00;;;;;20.01;39.32;102687.28;5058858;28;45277;-73
2023/01/21 07:14:11;;;;;;;;;4.75;4.75;;;;;20.01;39.42;102687.28;5058759;28;45307;-74
2023/01/21 07:16:37;;;;;;;;;2.75;2.75;;;;;19.92;39.30;102683.56;5058814;28;45355;-73
2023/01/21 07:19:02;;;;;;;;;4.00;4.00;;;;;20.01;39.40;102697.88;5058549;28;45303;-73
2023/01/21 07:21:28;;;;;;;;;3.75;2.75;;;;;20.01;39.23;102693.38;5058880;28;46224;-73
2023/01/21 07:23:54;;;;;;;;;3.25;3.00;;;;;20.02;39.14;102700.38;5058848;28;45435;-73
2023/01/21 07:26:19;;;;;;;;;2.00;2.00;;;;;20.03;39.22;102706.50;5058700;28;45344;-73
2023/01/21 07:28:45;;;;;;;;;3.75;3.75;;;;;19.93;39.38;102695.81;5058784;28;45359;-73
2023/01/21 07:31:10;;;;;;;;;2.75;2.75;;;;;19.98;39.04;102706.88;5058509;28;46107;-74
2023/01/21 07:33:35;;;;;;;;;4.50;2.25;;;;;20.04;38.98;102710.81;5058291;28;45344;-73
2023/01/21 07:36:01;;;;;;;;;2.50;2.50;;;;;20.04;39.04;102714.28;5058551;28;45727;-73
2023/01/21 07:38:26;;;;;;;;;4.00;3.00;;;;;19.97;39.19;102715.75;5040562;28;45333;-73
2023/01/21 07:40:51;;;;;;;;;3.00;2.75;;;;;20.03;39.17;102725.00;5058353;28;46059;-73
2023/01/21 07:43:17;;;;;;;;;2.50;2.50;;;;;20.05;39.45;102731.00;5058269;28;47466;-73
2023/01/21 07:45:42;;;;;;;;;2.50;2.50;;;;;20.06;39.08;102728.22;5058227;28;45393;-73
2023/01/21 07:48:09;;;;;;;;;2.25;2.00;;;;;20.04;38.90;102737.22;5058031;28;45391;-73
2023/01/21 07:50:35;;;;;;;;;4.00;3.00;;;;;19.96;38.88;102727.25;5058405;28;46377;-73
2023/01/21 07:53:00;;;;;;;;;2.25;2.25;;;;;20.06;38.89;102740.63;5058061;28;45400;-73
2023/01/21 07:55:27;;;;;;;;;3.00;3.00;;;;;20.02;39.12;102737.38;5058107;28;45433;-73
2023/01/21 07:57:55;;;;;;;;;3.75;3.75;;;;;20.04;39.19;102750.44;5058289;28;45370;-73
2023/01/21 08:00:20;;;;;;;;;2.50;1.50;;;;;20.04;38.67;102756.56;5058081;28;45442;-73
2023/01/21 08:02:49;;;;;;;;;3.00;2.75;;;;;19.96;39.11;102743.97;5057683;28;45372;-73
2023/01/21 08:05:14;;;;;;;;;3.25;2.75;;;;;20.01;39.03;102751.53;5057352;28;45380;-73
2023/01/21 08:07:40;;;;;;;;;2.75;2.75;;;;;20.00;39.25;102759.56;5058106;28;45372;-73
2023/01/21 08:10:05;;;;;;;;;2.00;2.00;;;;;20.03;39.01;102772.56;5057351;28;45262;-73
2023/01/21 08:12:30;;;;;;;;;3.75;2.25;;;;;19.99;39.00;102771.94;5058005;28;45390;-74
2023/01/21 08:14:56;;;;;;;;;2.50;2.50;;;;;20.01;39.10;102782.41;5057970;28;45226;-73
2023/01/21 08:17:21;;;;;;;;;2.25;1.50;;;;;20.00;39.17;102778.91;5057589;28;45281;-73
2023/01/21 08:19:46;;;;;;;;;4.00;3.25;;;;;19.94;39.36;102774.94;5039245;28;45453;-73
2023/01/21 08:22:12;;;;;;;;;2.50;2.50;;;;;20.02;39.34;102795.50;5057671;28;45380;-73
2023/01/21 08:24:37;;;;;;;;;2.75;2.00;;;;;20.03;39.12;102797.19;5057715;28;45281;-73
2023/01/21 08:27:02;;;;;;;;;1.50;1.50;;;;;20.03;39.31;102796.34;5039835;28;45584;-73
2023/01/21 08:29:28;;;;;;;;;4.25;2.00;;;;;20.01;39.16;102796.44;5057722;28;46104;-73
2023/01/21 08:31:53;;;;;;;;;2.25;1.75;;;;;20.03;39.39;102797.19;5057292;28;45273;-73
2023/01/21 08:34:18;;;;;;;;;2.25;2.25;;;;;20.04;39.18;102806.78;5057764;28;45302;-73
2023/01/21 08:36:44;;;;;;;;;5.25;3.50;;;;;20.05;39.15;102804.97;5057732;28;45249;-73
2023/01/21 08:39:12;;;;;;;;;2.50;2.50;;;;;20.05;39.15;102812.91;5057393;28;47030;-73
2023/01/21 08:41:39;;;;;;;;;2.50;2.50;;;;;20.04;39.26;102808.56;5057518;28;45287;-73
2023/01/21 08:44:05;;;;;;;;;0.75;0.75;;;;;20.06;39.07;102817.25;5057450;28;45381;-73
2023/01/21 08:46:30;;;;;;;;;2.75;2.75;;;;;20.08;39.25;102817.97;5056946;28;46030;-73
2023/01/21 08:48:56;;;;;;;;;3.50;3.50;;;;;20.07;39.25;102819.75;5057179;28;46765;-72
2023/01/21 08:51:21;;;;;;;;;2.25;2.25;;;;;20.08;39.24;102820.59;5057650;28;45487;-73
2023/01/21 08:53:48;;;;;;;;;2.75;2.75;;;;;20.09;39.23;102818.81;5057304;28;45416;-73
2023/01/21 08:56:14;;;;;;;;;2.00;2.00;;;;;20.09;39.16;102813.53;5057474;28;45372;-73
2023/01/21 08:58:39;;;;;;;;;4.00;3.25;;;;;20.10;38.98;102825.75;5057091;28;46032;-73
2023/01/21 09:01:07;;;;;;;;;3.00;3.00;;;;;20.11;39.12;102833.59;5056951;28;45406;-73
2023/01/21 09:03:32;;;;;;;;;3.00;2.50;;;;;20.11;39.26;102827.47;5057327;28;45487;-74
2023/01/21 09:06:02;;;;;;;;;4.00;3.50;;;;;20.11;38.84;102836.22;5056957;28;45452;-73
2023/01/21 09:08:28;;;;;;;;;3.00;2.33;;;;;20.03;39.19;102828.91;5073660;28;48670;-73
2023/01/21 09:11:00;;;;;;;;;2.75;2.75;;;;;20.04;38.91;102833.22;5076597;28;45357;-70
2023/01/21 09:13:28;;;;;;;;;3.50;2.25;;;;;20.14;39.21;102851.03;5077271;28;45471;-72
2023/01/21 09:15:53;;;;;;;;;2.00;2.00;;;;;20.16;39.42;102849.97;5061488;28;45271;-73
2023/01/21 09:18:18;;;;;;;;;2.00;2.00;;;;;20.19;39.33;102851.53;5047628;28;47382;-72
2023/01/21 09:20:44;;;;;;;;;1.75;1.75;;;;;20.21;39.35;102852.25;5046934;28;45463;-73
2023/01/21 09:23:25;;;;;;;;;3.00;3.00;;;;;20.28;39.34;102848.16;5045815;28;45369;-72
2023/01/21 09:25:54;;;;;;;;;4.00;2.00;;;;;20.33;39.64;102850.44;5045881;28;45347;-73
2023/01/21 09:28:21;;;;;;;;;3.00;3.00;;;;;20.37;39.66;102859.00;5045972;28;47075;-72
2023/01/21 09:30:47;;;;;;;;;4.25;4.00;;;;;20.31;39.51;102840.94;5052398;28;45367;-74
2023/01/21 09:33:14;;;;;;;;;3.75;2.00;;;;;20.41;39.59;102849.84;5056032;28;45425;-71
2023/01/21 09:35:39;;;;;;;;;2.75;2.75;;;;;20.50;39.67;102858.88;5056449;28;45427;-73
2023/01/21 09:38:04;;;;;;;;;2.75;2.75;;;;;20.55;39.82;102869.09;5055505;28;45329;-73
2023/01/21 09:40:30;;;;;;;;;3.00;3.00;;;;;20.58;39.47;102868.84;5055894;28;45361;-73
2023/01/21 09:42:56;;;;;;;;;4.00;2.25;;;;;20.61;39.55;102874.72;5056862;28;45301;-72
2023/01/21 09:45:22;;;;;;;;;5.25;3.50;;;;;20.64;39.69;102881.56;5053443;28;45296;-74
2023/01/21 09:47:49;;;;;;;;;4.00;4.00;;;;;20.60;39.64;102866.91;5036368;28;46138;-74
2023/01/21 09:50:20;;;;;;;;;4.50;3.25;;;;;20.72;39.71;102889.75;5036181;28;45368;-79
2023/01/21 09:52:52;;;;;;;;;4.25;3.25;;;;;20.76;39.99;102893.00;5036205;28;45503;-73
2023/01/21 09:55:27;;;;;;;;;4.00;4.00;;;;;20.79;39.95;102894.56;5036005;28;45492;-73
2023/01/21 09:58:10;;;;;;;;;7.00;4.75;;;;;20.81;38.41;102893.47;5017961;28;48771;-74
2023/01/21 10:00:38;;;;;;;;;17.50;12.50;;;;;20.70;36.92;102899.63;5036023;28;45372;-74
2023/01/21 10:03:10;;;;;;;;;11.75;11.75;;;;;20.67;37.29;102899.84;5036143;28;45411;-73
2023/01/21 10:05:42;;;;;;;;;9.75;8.25;;;;;20.62;38.48;102896.72;5036152;28;45333;-74
2023/01/21 10:08:29;;;;;;;;;8.50;6.00;;;;;20.72;38.85;102899.47;5036003;28;45996;-74
2023/01/21 10:11:19;;;;;;;;;6.25;6.25;;;;;20.75;38.83;102901.88;5036010;28;45580;-73
2023/01/21 10:14:33;;;;;;;;;7.50;5.00;;;;;20.79;38.76;102910.44;5035658;28;45432;-74
2023/01/21 10:17:07;;;;;;;;;6.00;6.00;;;;;20.81;38.77;102908.50;5018223;28;45555;-74
2023/01/21 10:19:43;;;;;;;;;7.25;5.00;;;;;20.83;38.76;102911.88;5035853;28;45474;-73
2023/01/21 10:22:13;;;;;;;;;5.50;5.50;;;;;20.85;39.05;102913.44;5034766;28;45445;-74
2023/01/21 10:24:45;;;;;;;;;6.25;5.00;;;;;20.87;38.62;102907.19;5035781;28;45313;-72
2023/01/21 10:27:19;;;;;;;;;5.75;3.25;;;;;20.83;38.59;102899.47;5035640;28;45805;-75
2023/01/21 10:29:49;;;;;;;;;5.50;5.25;;;;;20.82;39.18;102891.66;5035634;28;45929;-74
2023/01/21 10:32:19;;;;;;;;;5.50;5.50;;;;;20.80;39.16;102883.84;5035676;28;45389;-72
2023/01/21 10:34:51;;;;;;;;;6.50;5.25;;;;;20.90;38.96;102898.97;5035407;28;45481;-72
2023/01/21 10:37:27;;;;;;;;;6.25;5.25;;;;;20.89;38.86;102897.31;5035630;28;45345;-73
2023/01/21 10:40:12;;;;;;;;;4.75;4.00;;;;;20.87;39.04;102894.78;5035799;28;45376;-73
2023/01/21 10:43:06;;;;;;;;;7.00;5.25;;;;;20.89;39.07;102894.66;5034998;28;45390;-73
2023/01/21 10:45:47;;;;;;;;;4.50;3.75;;;;;20.89;38.58;102903.44;5039190;28;45314;-73
2023/01/21 10:48:37;;;;;;;;;5.00;4.75;;;;;20.88;38.87;102909.69;5055637;28;45331;-72
2023/01/21 10:51:05;;;;;;;;;5.00;4.75;;;;;20.87;38.85;102897.41;5055222;28;45400;-72
2023/01/21 10:53:34;;;;;;;;;6.25;4.00;;;;;20.76;38.65;102884.22;5055233;28;45305;-73
2023/01/21 10:56:16;;;;;;;;;6.50;5.00;;;;;20.85;39.20;102910.78;5055618;28;45503;-73
2023/01/21 10:58:47;;;;;;;;;7.50;6.00;;;;;20.85;38.77;102905.50;5054457;28;45399;-74
2023/01/21 11:01:26;;;;;;;;;5.00;5.00;;;;;20.86;38.53;102901.03;5037344;28;47068;-73
2023/01/21 11:03:56;;;;;;;;;4.00;4.00;;;;;20.85;38.65;102905.50;5055301;28;45304;-73
2023/01/21 11:06:23;;;;;;;;;4.00;4.00;;;;;20.85;38.61;102909.94;5055427;28;45372;-74
2023/01/21 11:08:54;;;;;;;;;7.00;5.25;;;;;20.83;38.69;102896.84;5055176;28;45534;-74
2023/01/21 11:11:31;;;;;;;;;5.25;4.25;;;;;20.83;38.58;102893.34;5054732;28;47377;-74
2023/01/21 11:13:57;;;;;;;;;4.50;4.50;;;;;20.82;38.61;102900.44;5054982;28;45364;-74
2023/01/21 11:16:38;;;;;;;;;7.50;5.00;;;;;20.83;38.50;102904.78;5055384;28;45698;-74
2023/01/21 11:19:06;;;;;;;;;5.25;4.50;;;;;20.83;38.98;102901.28;5055223;28;45488;-74
2023/01/21 11:21:32;;;;;;;;;4.00;4.00;;;;;20.77;38.31;102888.53;5054311;28;45349;-74
2023/01/21 11:24:03;;;;;;;;;4.00;4.00;;;;;20.82;38.56;102881.91;5055029;28;45402;-74
2023/01/21 11:26:34;;;;;;;;;5.00;3.25;;;;;20.80;38.39;102875.06;5054834;28;45460;-74
2023/01/21 11:29:06;;;;;;;;;7.25;5.00;;;;;20.79;38.59;102882.16;5037185;28;45398;-73
2023/01/21 11:31:33;;;;;;;;;6.00;5.00;;;;;20.66;38.23;102879.63;5055188;28;46154;-73
2023/01/21 11:34:09;;;;;;;;;6.50;4.75;;;;;20.77;38.63;102884.09;5056383;28;45360;-74
2023/01/21 11:36:34;;;;;;;;;5.50;5.50;;;;;20.77;38.12;102883.25;5058625;28;45317;-73